Time;durP1;ratioP1;P1;durP2;ratioP2;P2;SDS_P1;SDS_P2;PMS_P1;PMS_P2;Temp;Humidity;BMP_temperature;BMP_pressure;BME280_temperature;BME280_humidity;BME280_pressure;Samples;Min_cycle;Max_cycle;Signal;HPM_P1;HPM_P2
2021/06/17 00:00:18;;;;;;;4.87;3.43;;;22.70;1.00;;;;;;5117738;28;20467;-67
2021/06/17 00:02:46;;;;;;;4.10;3.70;;;22.70;1.00;;;;;;5117740;28;20453;-67
2021/06/17 00:05:14;;;;;;;5.03;3.50;;;22.70;1.00;;;;;;5117717;28;20922;-67
2021/06/17 00:07:41;;;;;;;4.40;4.00;;;22.70;1.00;;;;;;5117677;28;20448;-67
2021/06/17 00:10:15;;;;;;;3.90;3.60;;;22.70;1.00;;;;;;5117838;28;20788;-67
2021/06/17 00:12:43;;;;;;;5.73;5.23;;;22.70;1.00;;;;;;5117732;28;20872;-69
2021/06/17 00:15:13;;;;;;;5.33;3.97;;;22.60;1.00;;;;;;5117719;28;20718;-68
2021/06/17 00:17:42;;;;;;;5.77;4.17;;;22.60;1.00;;;;;;5117664;28;20483;-68
2021/06/17 00:20:09;;;;;;;4.67;4.27;;;22.60;1.00;;;;;;5117973;28;20492;-68
2021/06/17 00:22:36;;;;;;;4.23;3.83;;;22.60;1.00;;;;;;5117729;28;20456;-68
2021/06/17 00:25:03;;;;;;;6.23;3.40;;;22.60;1.00;;;;;;5117883;28;20456;-68
2021/06/17 00:27:31;;;;;;;9.37;4.90;;;22.60;1.00;;;;;;5117539;28;20464;-68
2021/06/17 00:30:00;;;;;;;5.50;3.90;;;22.60;1.00;;;;;;5117036;28;20464;-68
2021/06/17 00:32:27;;;;;;;7.17;4.30;;;22.50;1.00;;;;;;5117396;28;20516;-68
2021/06/17 00:34:54;;;;;;;5.53;5.03;;;22.50;1.00;;;;;;5117695;28;20755;-69
2021/06/17 00:37:20;;;;;;;4.60;4.20;;;22.50;1.00;;;;;;5117508;28;20477;-68
2021/06/17 00:39:47;;;;;;;5.00;4.50;;;22.50;1.00;;;;;;5117565;28;20467;-68
2021/06/17 00:42:14;;;;;;;5.27;4.77;;;22.50;1.00;;;;;;5117093;28;20463;-68
2021/06/17 00:44:42;;;;;;;5.27;4.87;;;22.50;1.00;;;;;;5116886;28;20453;-68
2021/06/17 00:47:10;;;;;;;5.53;5.10;;;22.50;1.00;;;;;;5116752;28;20793;-68
2021/06/17 00:49:37;;;;;;;5.70;4.77;;;22.40;1.00;;;;;;5116690;28;20456;-68
2021/06/17 00:52:07;;;;;;;5.23;4.77;;;22.40;1.00;;;;;;5116889;28;20534;-68
2021/06/17 00:54:34;;;;;;;9.77;4.63;;;22.40;1.00;;;;;;5116763;28;20818;-68
2021/06/17 00:57:02;;;;;;;5.53;5.00;;;22.40;1.00;;;;;;5116828;28;20476;-68
2021/06/17 00:59:29;;;;;;;6.33;4.97;;;22.40;1.00;;;;;;5117031;28;20453;-68
2021/06/17 01:01:57;;;;;;;6.00;5.17;;;22.30;1.00;;;;;;5116742;28;20788;-68
2021/06/17 01:04:24;;;;;;;5.93;5.27;;;22.30;1.00;;;;;;5116846;28;20461;-68
2021/06/17 01:06:51;;;;;;;5.33;4.30;;;22.30;1.00;;;;;;5116728;28;20448;-68
2021/06/17 01:09:29;;;;;;;8.23;5.47;;;22.20;1.00;;;;;;5116056;28;20516;-68
2021/06/17 01:12:03;;;;;;;5.50;5.00;;;22.20;1.00;;;;;;5117596;28;20452;-68
2021/06/17 01:14:37;;;;;;;5.30;4.80;;;22.20;1.00;;;;;;5116231;28;20447;-68
2021/06/17 01:17:08;;;;;;;6.13;5.53;;;22.20;1.00;;;;;;5116661;28;20487;-68
2021/06/17 01:19:50;;;;;;;6.70;6.00;;;22.20;1.00;;;;;;5116287;28;20436;-68
2021/06/17 01:22:29;;;;;;;5.50;5.00;;;22.20;1.00;;;;;;5116726;28;20782;-68
2021/06/17 01:25:28;;;;;;;5.90;5.40;;;22.10;1.00;;;;;;5116450;28;20446;-68
2021/06/17 01:28:07;;;;;;;6.20;5.60;;;22.10;1.00;;;;;;5101057;28;20445;-68
2021/06/17 01:30:41;;;;;;;6.40;5.80;;;22.10;1.00;;;;;;5116087;28;20439;-67
2021/06/17 01:33:08;;;;;;;6.70;6.00;;;22.10;1.00;;;;;;5116220;28;20436;-68
2021/06/17 01:35:42;;;;;;;7.43;6.73;;;22.00;1.00;;;;;;5116339;28;20456;-67
2021/06/17 01:38:12;;;;;;;7.33;6.23;;;22.10;1.00;;;;;;5115984;28;20463;-67
2021/06/17 01:40:42;;;;;;;5.93;5.43;;;22.00;1.00;;;;;;5115699;28;20448;-67
2021/06/17 01:43:10;;;;;;;6.50;6.00;;;22.00;1.00;;;;;;5116250;28;20758;-67
2021/06/17 01:45:37;;;;;;;7.60;6.90;;;22.00;1.00;;;;;;5116212;28;20467;-68
2021/06/17 01:48:07;;;;;;;6.87;6.17;;;22.00;1.00;;;;;;5115692;28;20487;-67
2021/06/17 01:50:35;;;;;;;7.27;6.20;;;22.00;1.00;;;;;;5115894;28;20476;-67
2021/06/17 01:53:02;;;;;;;7.50;6.80;;;22.00;1.00;;;;;;5115406;28;20525;-67
2021/06/17 01:55:35;;;;;;;7.33;6.60;;;22.00;1.00;;;;;;5115925;28;20468;-67
2021/06/17 01:58:05;;;;;;;7.90;7.20;;;21.90;1.00;;;;;;5115625;28;20468;-67
2021/06/17 02:00:35;;;;;;;8.00;6.97;;;21.90;1.00;;;;;;5115838;28;20459;-68
2021/06/17 02:03:05;;;;;;;8.80;7.17;;;21.90;1.00;;;;;;5115896;28;20881;-67
2021/06/17 02:05:33;;;;;;;12.63;7.20;;;21.90;1.00;;;;;;5115475;28;20452;-68
2021/06/17 02:08:02;;;;;;;8.50;7.70;;;21.90;1.00;;;;;;5115714;28;20928;-68
2021/06/17 02:10:30;;;;;;;7.80;7.00;;;21.90;1.00;;;;;;5115488;28;20460;-67
2021/06/17 02:12:58;;;;;;;6.97;6.37;;;21.90;1.00;;;;;;5115514;28;20463;-68
2021/06/17 02:15:29;;;;;;;7.97;7.07;;;21.90;1.00;;;;;;5115871;28;20467;-68
2021/06/17 02:17:59;;;;;;;11.83;7.23;;;21.90;1.00;;;;;;5115597;28;20460;-68
2021/06/17 02:20:26;;;;;;;7.67;6.87;;;21.80;1.00;;;;;;5114466;28;20452;-68
2021/06/17 02:22:56;;;;;;;7.47;6.63;;;21.80;1.00;;;;;;5115364;28;20456;-68
2021/06/17 02:25:24;;;;;;;7.23;6.53;;;21.80;1.00;;;;;;5115391;28;20459;-68
2021/06/17 02:27:58;;;;;;;7.70;7.00;;;21.80;1.00;;;;;;5115207;28;20487;-67
2021/06/17 02:30:28;;;;;;;15.63;7.97;;;21.80;1.00;;;;;;5115503;28;20436;-68
2021/06/17 02:32:59;;;;;;;8.13;7.33;;;21.80;1.00;;;;;;5115159;28;20452;-68
2021/06/17 02:35:28;;;;;;;7.40;6.73;;;21.80;1.00;;;;;;5115330;28;20465;-66
2021/06/17 02:37:57;;;;;;;8.17;7.37;;;21.70;6.40;;;;;;5115069;28;20483;-67
2021/06/17 02:40:26;;;;;;;8.93;8.00;;;21.70;16.80;;;;;;5115314;28;20463;-68
2021/06/17 02:42:54;;;;;;;8.00;7.20;;;21.70;23.10;;;;;;5115359;28;20452;-68
2021/06/17 02:45:25;;;;;;;8.67;7.90;;;21.70;40.80;;;;;;5115366;28;20453;-67
2021/06/17 02:47:51;;;;;;;9.00;8.10;;;21.70;47.40;;;;;;5114864;28;20468;-68
2021/06/17 02:50:20;;;;;;;13.37;8.50;;;21.70;54.60;;;;;;5115553;28;20776;-68
2021/06/17 02:52:46;;;;;;;8.77;8.00;;;21.70;69.70;;;;;;5115271;28;20463;-67
2021/06/17 02:55:14;;;;;;;8.80;8.00;;;21.70;97.90;;;;;;5115012;28;20456;-67
2021/06/17 02:57:53;;;;;;;9.90;8.90;;;21.70;99.90;;;;;;5115255;28;20487;-68
2021/06/17 03:00:23;;;;;;;9.53;8.53;;;21.70;99.90;;;;;;5115181;28;20853;-67
2021/06/17 03:02:58;;;;;;;9.67;8.53;;;21.70;99.90;;;;;;5114879;28;20441;-67
2021/06/17 03:05:32;;;;;;;9.27;8.40;;;21.70;99.90;;;;;;5115184;28;20873;-67
2021/06/17 03:08:03;;;;;;;13.27;8.60;;;21.70;99.90;;;;;;5114862;28;20432;-67
2021/06/17 03:10:32;;;;;;;9.80;8.80;;;21.70;99.90;;;;;;5115339;28;20440;-67
2021/06/17 03:13:03;;;;;;;9.90;8.13;;;21.70;99.90;;;;;;5114681;28;20456;-67
2021/06/17 03:15:36;;;;;;;11.80;8.40;;;21.70;99.90;;;;;;5115104;28;20447;-67
2021/06/17 03:18:05;;;;;;;9.87;8.60;;;21.70;99.90;;;;;;5114933;28;20947;-67
2021/06/17 03:20:35;;;;;;;8.60;7.80;;;21.70;99.90;;;;;;5115782;28;20457;-67
2021/06/17 03:23:05;;;;;;;9.07;8.17;;;21.70;99.90;;;;;;5115323;28;20475;-68
2021/06/17 03:25:36;;;;;;;11.40;9.40;;;21.60;99.90;;;;;;5115045;28;20432;-68
2021/06/17 03:28:04;;;;;;;9.70;8.77;;;21.60;99.90;;;;;;5114782;28;20444;-68
2021/06/17 03:30:32;;;;;;;10.23;9.30;;;21.60;99.90;;;;;;5115137;28;20463;-68
2021/06/17 03:33:01;;;;;;;9.70;8.77;;;21.70;99.90;;;;;;5118102;28;20919;-67
2021/06/17 03:35:29;;;;;;;9.43;8.60;;;21.60;99.90;;;;;;5118584;28;20467;-68
2021/06/17 03:37:58;;;;;;;9.47;8.57;;;21.70;99.90;;;;;;5118757;28;20553;-67
2021/06/17 03:40:27;;;;;;;11.03;9.00;;;21.70;99.90;;;;;;5118846;28;20484;-68
2021/06/17 03:42:55;;;;;;;10.80;9.80;;;21.70;99.90;;;;;;5119832;28;20744;-68
2021/06/17 03:45:23;;;;;;;9.67;8.80;;;21.70;99.90;;;;;;5119632;28;20452;-68
2021/06/17 03:47:52;;;;;;;10.50;9.70;;;21.70;99.90;;;;;;5125820;28;20487;-67
2021/06/17 03:50:23;;;;;;;8.40;7.60;;;21.70;99.90;;;;;;5134150;28;20467;-68
2021/06/17 03:52:53;;;;;;;9.63;8.70;;;21.70;99.90;;;;;;5133384;28;20436;-68
2021/06/17 03:55:21;;;;;;;9.67;8.63;;;21.70;99.90;;;;;;5135117;28;20451;-67
2021/06/17 03:57:50;;;;;;;10.30;9.33;;;21.80;99.90;;;;;;5133317;28;20476;-67
2021/06/17 04:00:18;;;;;;;9.03;8.20;;;21.80;99.90;;;;;;5134294;28;20460;-68
2021/06/17 04:02:45;;;;;;;12.20;10.10;;;21.80;99.90;;;;;;5134435;28;20452;-68
2021/06/17 04:05:13;;;;;;;9.87;8.97;;;21.80;99.90;;;;;;5132583;28;20468;-67
2021/06/17 04:07:42;;;;;;;10.63;9.63;;;21.90;99.90;;;;;;5131614;28;20460;-67
2021/06/17 04:10:11;;;;;;;9.83;8.93;;;21.90;99.90;;;;;;5132056;28;20453;-67
2021/06/17 04:12:41;;;;;;;9.90;9.00;;;21.90;99.90;;;;;;5130162;28;20466;-67
2021/06/17 04:15:13;;;;;;;10.20;9.30;;;21.90;99.90;;;;;;5129626;28;20490;-67
2021/06/17 04:17:42;;;;;;;10.57;9.47;;;22.00;99.90;;;;;;5131928;28;20460;-67
2021/06/17 04:20:12;;;;;;;10.10;9.20;;;22.00;99.90;;;;;;5133439;28;20624;-68
2021/06/17 04:22:46;;;;;;;14.10;10.60;;;22.10;99.90;;;;;;5133534;28;20449;-67
2021/06/17 04:25:14;;;;;;;15.27;10.33;;;22.10;99.90;;;;;;5129054;28;20448;-67
2021/06/17 04:27:43;;;;;;;10.07;9.17;;;22.10;99.90;;;;;;5129089;28;20459;-68
2021/06/17 04:30:11;;;;;;;12.07;10.73;;;22.10;99.90;;;;;;5125879;28;20462;-68
2021/06/17 04:32:40;;;;;;;11.30;10.13;;;22.10;99.90;;;;;;5124623;28;20517;-68
2021/06/17 04:35:08;;;;;;;10.27;9.27;;;22.20;99.90;;;;;;5119767;28;20784;-67
2021/06/17 04:37:35;;;;;;;10.10;9.10;;;22.20;99.90;;;;;;5120442;28;20491;-67
2021/06/17 04:40:02;;;;;;;10.53;9.53;;;22.20;99.90;;;;;;5121911;28;20452;-68
2021/06/17 04:42:30;;;;;;;10.73;9.57;;;22.20;99.90;;;;;;5120868;28;20460;-68
2021/06/17 04:44:59;;;;;;;12.17;10.80;;;22.20;99.90;;;;;;5119031;28;20593;-68
2021/06/17 04:47:26;;;;;;;12.07;10.90;;;22.30;99.90;;;;;;5119598;28;20516;-67
2021/06/17 04:49:52;;;;;;;11.80;10.67;;;22.30;99.90;;;;;;5119720;28;20453;-67
2021/06/17 04:52:31;;;;;;;12.80;11.27;;;22.30;99.90;;;;;;5117281;28;20479;-68
2021/06/17 04:54:58;;;;;;;10.60;9.50;;;22.30;99.90;;;;;;5117356;28;20456;-67
2021/06/17 04:57:25;;;;;;;11.70;10.60;;;22.30;99.90;;;;;;5117167;28;20456;-67
2021/06/17 04:59:53;;;;;;;15.53;11.47;;;22.30;99.90;;;;;;5117729;28;20456;-68
2021/06/17 05:02:21;;;;;;;18.90;14.03;;;22.40;99.90;;;;;;5118267;28;20463;-67
2021/06/17 05:04:48;;;;;;;13.20;11.90;;;22.40;99.90;;;;;;5119642;28;20471;-68
2021/06/17 05:07:38;;;;;;;15.23;11.70;;;22.40;99.90;;;;;;5120204;28;20475;-69
2021/06/17 05:12:51;;;;;;;13.13;10.77;;;22.50;99.90;;;;;;5116478;28;20431;-67
2021/06/17 05:15:18;;;;;;;12.00;10.80;;;22.50;99.90;;;;;;5116642;28;20452;-68
2021/06/17 05:17:46;;;;;;;10.80;9.80;;;22.60;99.90;;;;;;5116529;28;20484;-67
2021/06/17 05:20:14;;;;;;;12.70;10.50;;;22.60;99.90;;;;;;5116378;28;20457;-67
2021/06/17 05:22:43;;;;;;;12.17;10.87;;;22.70;99.90;;;;;;5117061;28;20460;-68
2021/06/17 05:25:11;;;;;;;12.80;11.50;;;22.80;99.90;;;;;;5117123;28;20457;-68
2021/06/17 05:27:38;;;;;;;13.43;11.30;;;22.80;99.90;;;;;;5116373;28;20461;-67
2021/06/17 05:30:07;;;;;;;35.53;30.70;;;22.80;99.90;;;;;;5116281;28;20453;-67
2021/06/17 05:32:34;;;;;;;14.50;12.80;;;22.90;99.90;;;;;;5116261;28;20479;-67
2021/06/17 05:35:02;;;;;;;15.97;10.97;;;22.90;99.90;;;;;;5116336;28;20452;-67
2021/06/17 05:37:29;;;;;;;10.53;9.60;;;23.00;99.90;;;;;;5116335;28;20456;-68
2021/06/17 05:39:55;;;;;;;11.93;10.83;;;23.00;99.90;;;;;;5115687;28;20912;-68
2021/06/17 05:42:22;;;;;;;11.70;9.60;;;23.10;99.90;;;;;;5116245;28;20452;-68
2021/06/17 05:44:49;;;;;;;12.90;11.17;;;23.20;99.90;;;;;;5116538;28;20483;-68
2021/06/17 05:47:15;;;;;;;10.90;10.00;;;23.20;99.90;;;;;;5116044;28;20533;-68
2021/06/17 05:49:42;;;;;;;12.43;11.10;;;23.30;99.90;;;;;;5116524;28;20510;-68
2021/06/17 05:52:10;;;;;;;14.50;11.97;;;23.40;99.90;;;;;;5117498;28;20456;-68
2021/06/17 05:54:37;;;;;;;13.07;10.50;;;23.50;99.90;;;;;;5116498;28;20448;-68
2021/06/17 05:57:04;;;;;;;12.57;11.27;;;23.50;99.90;;;;;;5115333;28;20977;-68
2021/06/17 05:59:32;;;;;;;12.13;11.10;;;23.60;99.90;;;;;;5115729;28;20503;-68
2021/06/17 06:01:59;;;;;;;12.07;10.97;;;23.70;90.00;;;;;;5115942;28;20464;-68
2021/06/17 06:04:25;;;;;;;11.73;10.63;;;23.70;74.20;;;;;;5115966;28;20457;-68
2021/06/17 06:06:52;;;;;;;11.13;10.00;;;23.70;73.80;;;;;;5116204;28;20469;-68
2021/06/17 06:09:20;;;;;;;12.47;11.30;;;23.80;53.20;;;;;;5115652;28;20943;-68
2021/06/17 06:11:47;;;;;;;11.60;10.40;;;23.80;49.80;;;;;;5116413;28;20452;-67
2021/06/17 06:14:14;;;;;;;12.23;11.13;;;23.90;42.70;;;;;;5116042;28;20467;-68
2021/06/17 06:16:40;;;;;;;11.77;10.77;;;23.90;36.90;;;;;;5115650;28;20456;-66
2021/06/17 06:19:07;;;;;;;12.20;11.10;;;24.00;34.10;;;;;;5115793;28;20481;-68
2021/06/17 06:21:34;;;;;;;12.20;11.03;;;24.00;38.50;;;;;;5116670;28;20827;-67
2021/06/17 06:24:01;;;;;;;12.90;11.60;;;24.10;34.50;;;;;;5115493;28;20460;-69
2021/06/17 06:26:29;;;;;;;12.53;11.23;;;24.10;36.00;;;;;;5115676;28;20452;-67
2021/06/17 06:28:56;;;;;;;14.30;11.50;;;24.20;39.30;;;;;;5115238;28;20453;-68
2021/06/17 06:31:23;;;;;;;16.73;11.10;;;24.30;31.40;;;;;;5115081;28;20823;-68
2021/06/17 06:33:49;;;;;;;11.40;10.40;;;24.40;19.40;;;;;;5115490;28;20489;-68
2021/06/17 06:36:16;;;;;;;21.30;11.10;;;24.40;20.80;;;;;;5114779;28;20460;-68
2021/06/17 06:38:43;;;;;;;13.13;11.30;;;24.50;17.30;;;;;;5115034;28;20482;-67
2021/06/17 06:41:09;;;;;;;14.13;10.30;;;24.60;10.80;;;;;;5114992;28;20464;-67
2021/06/17 06:43:37;;;;;;;13.80;11.03;;;24.60;2.00;;;;;;5115502;28;20464;-67
2021/06/17 06:46:04;;;;;;;15.80;11.70;;;24.70;1.00;;;;;;5115104;28;20491;-69
2021/06/17 06:48:31;;;;;;;13.27;11.97;;;24.80;1.00;;;;;;5115505;28;20447;-67
2021/06/17 06:50:58;;;;;;;13.10;10.30;;;24.80;1.00;;;;;;5114928;28;20458;-67
2021/06/17 06:53:24;;;;;;;11.43;10.43;;;24.90;1.00;;;;;;5114940;28;20452;-68
2021/06/17 06:55:51;;;;;;;21.73;10.60;;;24.90;1.00;;;;;;5114816;28;20483;-68
2021/06/17 06:58:18;;;;;;;11.03;10.07;;;25.00;1.00;;;;;;5115041;28;20480;-68
2021/06/17 07:00:46;;;;;;;11.73;10.53;;;25.00;1.00;;;;;;5115479;28;20448;-68
2021/06/17 07:03:13;;;;;;;18.63;12.23;;;25.10;1.00;;;;;;5114798;28;20932;-68
2021/06/17 07:05:39;;;;;;;11.93;10.70;;;25.30;1.00;;;;;;5115495;28;20452;-69
2021/06/17 07:08:10;;;;;;;10.70;9.77;;;25.30;1.00;;;;;;5118827;28;20932;-68
2021/06/17 07:10:37;;;;;;;11.70;10.50;;;25.40;1.00;;;;;;5119009;28;20556;-67
2021/06/17 07:13:05;;;;;;;11.90;10.80;;;25.50;1.00;;;;;;5118982;28;20774;-68
2021/06/17 07:15:32;;;;;;;11.90;10.53;;;25.60;1.00;;;;;;5119648;28;20544;-68
2021/06/17 07:18:00;;;;;;;10.93;9.87;;;25.70;1.00;;;;;;5118892;28;20451;-68
2021/06/17 07:20:27;;;;;;;12.50;11.30;;;25.80;1.00;;;;;;5118462;28;20923;-68
2021/06/17 07:22:56;;;;;;;11.57;10.37;;;25.90;1.00;;;;;;5118873;28;20469;-68
2021/06/17 07:25:23;;;;;;;12.20;10.60;;;26.00;1.00;;;;;;5118283;28;20972;-69
2021/06/17 07:27:50;;;;;;;11.03;9.70;;;26.00;1.00;;;;;;5118395;28;20460;-68
2021/06/17 07:30:18;;;;;;;11.07;10.00;;;26.20;1.00;;;;;;5118634;28;20452;-68
2021/06/17 07:32:46;;;;;;;11.20;10.10;;;26.30;1.00;;;;;;5118932;28;20758;-67
2021/06/17 07:35:15;;;;;;;10.10;9.07;;;26.40;1.00;;;;;;5118532;28;20456;-67
2021/06/17 07:37:42;;;;;;;10.47;9.57;;;26.50;1.00;;;;;;5118476;28;20460;-67
2021/06/17 07:40:11;;;;;;;10.63;9.70;;;26.60;1.00;;;;;;5118609;28;20484;-68
2021/06/17 07:42:38;;;;;;;11.37;10.27;;;26.70;1.00;;;;;;5118255;28;20463;-68
2021/06/17 07:45:07;;;;;;;16.33;10.70;;;26.80;1.00;;;;;;5119283;28;20480;-68
2021/06/17 07:47:35;;;;;;;10.93;9.67;;;26.90;1.00;;;;;;5118379;28;20494;-68
2021/06/17 07:50:01;;;;;;;11.87;8.77;;;27.00;1.00;;;;;;5118531;28;20530;-68
2021/06/17 07:52:29;;;;;;;11.10;10.00;;;27.00;1.00;;;;;;5118233;28;20452;-68
2021/06/17 07:54:56;;;;;;;11.30;10.20;;;27.10;1.00;;;;;;5118516;28;20460;-68
2021/06/17 07:57:23;;;;;;;10.93;9.83;;;27.10;1.00;;;;;;5118679;28;20825;-67
2021/06/17 07:59:50;;;;;;;11.20;9.33;;;27.20;1.00;;;;;;5117823;28;20491;-67
2021/06/17 08:02:16;;;;;;;11.87;10.53;;;27.30;1.00;;;;;;5118177;28;20894;-68
2021/06/17 08:04:43;;;;;;;13.33;9.60;;;27.40;1.00;;;;;;5117771;28;20459;-67
2021/06/17 08:07:10;;;;;;;11.50;10.07;;;27.40;1.00;;;;;;5117772;28;20457;-67
2021/06/17 08:09:38;;;;;;;16.50;9.00;;;27.50;1.00;;;;;;5117978;28;20463;-67
2021/06/17 08:12:05;;;;;;;10.03;9.10;;;27.60;1.00;;;;;;5117970;28;20779;-67
2021/06/17 08:14:32;;;;;;;10.30;9.00;;;27.70;1.00;;;;;;5118291;28;20456;-67
2021/06/17 08:16:59;;;;;;;10.60;8.70;;;27.70;1.00;;;;;;5117667;28;20456;-67
2021/06/17 08:19:28;;;;;;;9.40;8.57;;;27.80;1.00;;;;;;5117963;28;20476;-68
2021/06/17 08:21:56;;;;;;;9.67;8.70;;;27.90;1.00;;;;;;5118004;28;20452;-69
2021/06/17 08:24:23;;;;;;;10.60;9.10;;;28.00;1.00;;;;;;5117622;28;20517;-68
2021/06/17 08:26:51;;;;;;;10.00;8.90;;;28.20;1.00;;;;;;5117810;28;20452;-67
2021/06/17 08:29:18;;;;;;;8.67;7.87;;;28.20;1.00;;;;;;5117498;28;20460;-67
2021/06/17 08:31:45;;;;;;;9.60;8.70;;;28.30;1.00;;;;;;5117337;28;20548;-68
2021/06/17 08:34:12;;;;;;;11.53;8.40;;;28.40;1.00;;;;;;5117356;28;20460;-68
2021/06/17 08:36:39;;;;;;;9.80;8.80;;;28.40;1.00;;;;;;5117458;28;20463;-68
2021/06/17 08:39:06;;;;;;;8.77;7.90;;;28.50;1.00;;;;;;5117385;28;20476;-67
2021/06/17 08:41:33;;;;;;;11.87;7.87;;;28.60;1.00;;;;;;5117004;28;20456;-67
2021/06/17 08:44:01;;;;;;;9.27;8.47;;;28.70;1.00;;;;;;5117391;28;20472;-67
2021/06/17 08:46:28;;;;;;;12.60;7.90;;;28.80;1.00;;;;;;5116915;28;20476;-67
2021/06/17 08:48:55;;;;;;;7.90;7.23;;;28.90;1.00;;;;;;5117355;28;20455;-67
2021/06/17 08:51:22;;;;;;;12.70;8.60;;;29.00;1.00;;;;;;5117452;28;20521;-67
2021/06/17 08:53:50;;;;;;;8.63;6.77;;;29.10;1.00;;;;;;5117928;28;20766;-67
2021/06/17 08:56:17;;;;;;;9.57;7.53;;;29.10;1.00;;;;;;5117566;28;20467;-67
2021/06/17 08:58:45;;;;;;;11.03;7.53;;;29.10;1.00;;;;;;5117513;28;20480;-67
2021/06/17 09:01:15;;;;;;;8.47;7.67;;;29.20;1.00;;;;;;5116750;28;20452;-67
2021/06/17 09:03:44;;;;;;;8.30;7.50;;;29.20;1.00;;;;;;5116790;28;20513;-67
2021/06/17 09:06:11;;;;;;;8.27;7.57;;;29.20;1.00;;;;;;5116850;28;20490;-67
2021/06/17 09:08:39;;;;;;;7.93;7.23;;;29.30;1.00;;;;;;5117005;28;20456;-67
2021/06/17 09:11:18;;;;;;;8.47;7.73;;;29.40;1.00;;;;;;5116458;28;20464;-67
2021/06/17 09:13:44;;;;;;;7.63;6.93;;;29.50;1.00;;;;;;5117063;28;20440;-67
2021/06/17 09:16:26;;;;;;;7.77;7.10;;;29.50;1.00;;;;;;5116648;28;20467;-67
2021/06/17 09:18:53;;;;;;;7.93;7.13;;;29.60;1.00;;;;;;5116419;28;20464;-67
2021/06/17 09:21:21;;;;;;;7.90;7.10;;;29.70;1.00;;;;;;5116564;28;20457;-67
2021/06/17 09:23:49;;;;;;;8.50;7.80;;;29.90;1.00;;;;;;5116457;28;20467;-68
2021/06/17 09:26:18;;;;;;;7.57;6.97;;;30.00;1.00;;;;;;5116089;28;20463;-68
2021/06/17 09:28:59;;;;;;;11.03;7.30;;;30.10;1.00;;;;;;5115822;28;20471;-68
2021/06/17 09:31:30;;;;;;;8.03;6.23;;;30.20;1.00;;;;;;5116799;28;20440;-68
2021/06/17 09:33:58;;;;;;;7.87;7.17;;;30.30;1.00;;;;;;5117118;27;20451;-68
2021/06/17 09:36:28;;;;;;;8.07;7.27;;;30.30;1.00;;;;;;5117016;28;20467;-68
2021/06/17 09:38:57;;;;;;;7.20;6.60;;;30.40;1.00;;;;;;5118066;28;20486;-69
2021/06/17 09:41:31;;;;;;;7.60;6.43;;;30.40;1.00;;;;;;5119025;28;20463;-69
2021/06/17 09:43:58;;;;;;;10.20;6.90;;;30.50;1.00;;;;;;5116925;28;20447;-67
2021/06/17 09:46:26;;;;;;;8.80;6.90;;;30.50;1.00;;;;;;5116856;28;20487;-67
2021/06/17 09:48:53;;;;;;;8.03;7.23;;;30.70;1.00;;;;;;5117131;28;20837;-68
2021/06/17 09:51:33;;;;;;;7.67;7.07;;;30.80;1.00;;;;;;5117149;28;20457;-69
2021/06/17 09:54:18;;;;;;;7.23;6.63;;;30.90;1.00;;;;;;5116337;28;20528;-68
2021/06/17 09:56:50;;;;;;;7.90;7.10;;;31.00;1.00;;;;;;5115742;28;20452;-67
2021/06/17 09:59:41;;;;;;;6.87;6.27;;;31.00;1.00;;;;;;5115956;28;20465;-67
2021/06/17 10:02:12;;;;;;;7.07;6.37;;;31.10;1.00;;;;;;5115702;28;20515;-68
2021/06/17 10:04:39;;;;;;;6.97;6.40;;;31.10;1.00;;;;;;5115706;28;20488;-68
2021/06/17 10:07:07;;;;;;;10.53;6.00;;;31.10;1.00;;;;;;5115538;28;20920;-68
2021/06/17 10:09:35;;;;;;;6.67;6.17;;;31.20;1.00;;;;;;5115473;28;20509;-66
2021/06/17 10:12:02;;;;;;;8.20;6.50;;;31.30;1.00;;;;;;5114843;28;20467;-66
2021/06/17 10:14:30;;;;;;;6.93;6.43;;;31.40;1.00;;;;;;5115118;28;20471;-66
2021/06/17 10:16:58;;;;;;;9.43;7.40;;;31.50;1.00;;;;;;5116077;28;20467;-68
2021/06/17 10:19:28;;;;;;;10.20;6.17;;;31.60;1.00;;;;;;5115528;28;20937;-67
2021/06/17 10:21:54;;;;;;;6.10;5.60;;;31.70;1.00;;;;;;5115298;28;20457;-67
2021/06/17 10:24:23;;;;;;;5.40;5.00;;;31.80;1.00;;;;;;5115276;28;20471;-67
2021/06/17 10:26:51;;;;;;;5.70;5.30;;;31.90;1.00;;;;;;5115372;28;20467;-67
2021/06/17 10:29:35;;;;;;;5.43;4.93;;;31.90;1.00;;;;;;5115422;28;20902;-67
2021/06/17 10:32:04;;;;;;;5.57;5.17;;;32.00;1.00;;;;;;5115718;28;20474;-67
2021/06/17 10:34:37;;;;;;;8.27;6.10;;;32.20;1.00;;;;;;5116033;28;20463;-67
2021/06/17 10:37:12;;;;;;;6.17;5.57;;;32.30;1.00;;;;;;5115441;28;20451;-67
2021/06/17 10:39:41;;;;;;;6.43;5.93;;;32.30;1.00;;;;;;5115293;28;20468;-67
2021/06/17 10:42:10;;;;;;;6.10;5.60;;;32.40;1.00;;;;;;5117556;28;20773;-67
2021/06/17 10:44:37;;;;;;;6.30;5.80;;;32.50;1.00;;;;;;5119506;28;20452;-67
2021/06/17 10:47:04;;;;;;;6.73;5.77;;;32.60;1.00;;;;;;5119078;28;20491;-68
2021/06/17 10:50:03;;;;;;;6.20;5.40;;;32.60;1.00;;;;;;5119240;28;20455;-68
2021/06/17 10:52:31;;;;;;;5.50;5.10;;;32.70;1.00;;;;;;5119212;28;20446;-68
2021/06/17 10:55:00;;;;;;;6.33;5.20;;;32.80;1.00;;;;;;5119404;28;20452;-68
2021/06/17 10:58:01;;;;;;;6.10;4.97;;;32.80;1.00;;;;;;5118983;28;20920;-68
2021/06/17 11:00:47;;;;;;;6.80;5.20;;;32.90;1.00;;;;;;5036734;28;20546;-66
2021/06/17 11:03:39;;;;;;;9.80;5.70;;;32.90;1.00;;;;;;5036806;28;20456;-67
2021/06/17 11:06:07;;;;;;;6.53;5.87;;;33.10;1.00;;;;;;5099662;28;20770;-67
2021/06/17 11:08:34;;;;;;;5.73;5.23;;;33.20;1.00;;;;;;5119182;28;20456;-67
2021/06/17 11:11:03;;;;;;;5.90;5.50;;;33.30;1.00;;;;;;5118917;28;20517;-67
2021/06/17 11:13:32;;;;;;;6.47;4.70;;;33.30;1.00;;;;;;5118729;28;20448;-67
2021/06/17 11:16:01;;;;;;;5.50;5.10;;;33.30;1.00;;;;;;5119163;28;20832;-67
2021/06/17 11:18:57;;;;;;;5.17;4.77;;;33.40;1.00;;;;;;5118866;28;20517;-68
2021/06/17 11:21:43;;;;;;;6.50;5.40;;;33.50;1.00;;;;;;5118690;28;20464;-67
2021/06/17 11:24:31;;;;;;;6.13;5.47;;;33.70;1.00;;;;;;5119115;28;20747;-67
2021/06/17 11:26:58;;;;;;;7.93;5.37;;;34.20;1.00;;;;;;5118942;28;20547;-67
2021/06/17 11:29:56;;;;;;;6.03;4.70;;;34.70;1.00;;;;;;5119472;28;20452;-67
2021/06/17 11:32:32;;;;;;;6.50;4.40;;;35.50;1.00;;;;;;5119035;27;20444;-67
2021/06/17 11:34:59;;;;;;;4.83;4.10;;;36.00;1.00;;;;;;5120258;28;20467;-68
2021/06/17 11:37:32;;;;;;;5.57;4.80;;;36.60;1.00;;;;;;5120312;28;20459;-67
2021/06/17 11:40:00;;;;;;;4.20;3.90;;;37.20;1.00;;;;;;5119015;28;20522;-69
2021/06/17 11:42:27;;;;;;;5.27;4.77;;;37.70;1.00;;;;;;5118387;28;20787;-68
2021/06/17 11:45:01;;;;;;;13.63;4.40;;;38.40;1.00;;;;;;5118377;28;20445;-68
2021/06/17 11:47:28;;;;;;;7.00;4.40;;;38.70;1.00;;;;;;5117611;28;20475;-68
2021/06/17 11:50:03;;;;;;;4.87;4.47;;;38.60;1.00;;;;;;5118662;28;20466;-68
2021/06/17 11:52:37;;;;;;;4.67;4.27;;;38.80;1.00;;;;;;5117690;28;20452;-68
2021/06/17 11:55:07;;;;;;;5.17;4.67;;;38.90;1.00;;;;;;5118049;28;20471;-68
2021/06/17 11:57:37;;;;;;;5.23;4.73;;;39.00;1.00;;;;;;5118176;28;20460;-67
2021/06/17 12:00:06;;;;;;;4.27;3.87;;;39.30;1.00;;;;;;5118293;28;20518;-67
2021/06/17 12:02:32;;;;;;;4.40;4.00;;;39.70;1.00;;;;;;5118286;27;20457;-68
2021/06/17 12:05:02;;;;;;;4.50;4.10;;;40.00;1.00;;;;;;5118099;28;20777;-67
2021/06/17 12:07:31;;;;;;;3.73;3.50;;;40.50;1.00;;;;;;5117829;28;20456;-68
2021/06/17 12:10:08;;;;;;;4.30;3.90;;;40.90;1.00;;;;;;5117691;28;20452;-68
2021/06/17 12:12:40;;;;;;;4.80;3.73;;;41.50;1.00;;;;;;5118430;28;20509;-69
2021/06/17 12:15:08;;;;;;;4.00;3.70;;;42.00;1.00;;;;;;5119347;28;20466;-67
2021/06/17 12:17:37;;;;;;;3.70;3.50;;;42.40;1.00;;;;;;5118430;28;20973;-68
2021/06/17 12:20:16;;;;;;;4.20;3.90;;;42.90;1.00;;;;;;5118121;27;20532;-68
2021/06/17 12:22:47;;;;;;;4.50;3.63;;;43.00;1.00;;;;;;5117955;28;20436;-68
2021/06/17 12:25:18;;;;;;;3.97;3.67;;;42.90;1.00;;;;;;5118065;28;20530;-69
2021/06/17 12:27:47;;;;;;;3.80;3.50;;;43.00;1.00;;;;;;5118038;28;20440;-67
2021/06/17 12:30:25;;;;;;;3.80;3.37;;;43.20;1.00;;;;;;5117771;28;20448;-68
2021/06/17 12:32:52;;;;;;;5.00;3.63;;;43.40;1.00;;;;;;5117677;28;20943;-69
2021/06/17 12:35:19;;;;;;;4.23;3.93;;;43.70;1.00;;;;;;5118266;28;20451;-68
2021/06/17 12:37:59;;;;;;;4.30;4.00;;;43.80;1.00;;;;;;5118726;28;20463;-69
2021/06/17 12:40:32;;;;;;;5.13;3.80;;;43.70;1.00;;;;;;5118747;28;20471;-68
2021/06/17 12:43:06;;;;;;;4.00;3.70;;;43.50;1.00;;;;;;5118467;28;20455;-68
2021/06/17 12:45:35;;;;;;;4.70;3.90;;;43.70;1.00;;;;;;5118040;28;20454;-68
2021/06/17 12:48:07;;;;;;;4.60;4.30;;;44.10;1.00;;;;;;5117425;28;20476;-68
2021/06/17 12:53:21;;;;;;;4.30;3.90;;;43.70;1.00;;;;;;5117569;28;20431;-68
2021/06/17 12:55:54;;;;;;;4.10;3.80;;;42.90;1.00;;;;;;5117040;28;20494;-68
2021/06/17 12:58:23;;;;;;;4.50;4.10;;;42.20;1.00;;;;;;5117203;28;20441;-68
2021/06/17 13:00:58;;;;;;;6.50;3.77;;;42.20;1.00;;;;;;5117066;28;20515;-68
2021/06/17 13:03:25;;;;;;;4.10;3.80;;;42.10;1.00;;;;;;5116417;28;20448;-68
2021/06/17 13:05:54;;;;;;;5.17;4.67;;;41.90;1.00;;;;;;5116479;28;20484;-68